Terminal Aerodrome Forecast
Issued by NWS Amarillo, TX

Home | Current Version | Previous Version | Text Only | Print | Product List | Glossary On
Versions: 1 2 3 4 5 6 7 8 9 10 11 12 13 14 15 16 17 18
000
FTUS44 KAMA 291740
TAFGUY
TAF
KGUY 291740Z 2918/3018 13006KT P6SM VCSH SCT015 OVC080
      TEMPO 2918/2921 5SM SHRA BKN015
     FM292100 12010KT P6SM VCTS OVC040CB
      TEMPO 2921/3001 VRB15G30KT 3SM TSRA OVC035CB
     FM300300 09005KT 6SM -RA BR OVC080
     FM301500 01003KT 6SM BR OVC025=

USA.gov is the U.S. government's official web portal to all federal, state and local government web resources and services.